createdAt,value
2023-03-29T00:00:33.639Z,0.60
2023-03-29T00:01:35.476Z,0.60
2023-03-29T00:02:33.804Z,0.59
2023-03-29T00:05:33.608Z,0.59
2023-03-29T00:07:33.624Z,0.59
2023-03-29T00:09:33.672Z,0.60
2023-03-29T00:10:33.643Z,0.61
2023-03-29T00:11:33.601Z,0.62
2023-03-29T00:13:33.614Z,0.61
2023-03-29T00:14:33.611Z,0.62
2023-03-29T00:16:33.628Z,0.61
2023-03-29T00:17:33.593Z,0.61
2023-03-29T00:18:33.573Z,0.60
2023-03-29T00:20:33.580Z,0.62
2023-03-29T00:21:33.579Z,0.62
2023-03-29T00:22:33.580Z,0.60
2023-03-29T00:27:33.574Z,0.59
2023-03-29T00:29:33.565Z,0.58
2023-03-29T00:30:33.568Z,0.57
2023-03-29T00:31:33.609Z,0.57
2023-03-29T00:32:33.594Z,0.57
2023-03-29T00:34:33.551Z,0.58
2023-03-29T00:38:33.531Z,0.59
2023-03-29T00:39:33.528Z,0.59
2023-03-29T00:40:33.512Z,0.59
2023-03-29T00:41:33.521Z,0.59
2023-03-29T00:43:33.471Z,0.58
2023-03-29T00:45:33.453Z,0.58
2023-03-29T00:46:33.494Z,0.56
2023-03-29T00:47:33.487Z,0.55
2023-03-29T00:48:33.456Z,0.54
2023-03-29T00:49:33.437Z,0.53
2023-03-29T00:50:33.439Z,0.54
2023-03-29T00:53:33.434Z,0.54
2023-03-29T00:54:33.395Z,0.54
2023-03-29T00:55:33.399Z,0.54
2023-03-29T00:56:33.384Z,0.55
2023-03-29T01:00:33.346Z,0.55
2023-03-29T01:02:33.431Z,0.54
2023-03-29T01:04:33.325Z,0.54
2023-03-29T01:05:33.312Z,0.52
2023-03-29T01:06:33.326Z,0.53
2023-03-29T01:07:33.307Z,0.55
2023-03-29T01:08:33.329Z,0.54
2023-03-29T01:09:33.324Z,0.54
2023-03-29T01:10:33.312Z,0.55
2023-03-29T01:11:33.335Z,0.54
2023-03-29T01:12:33.297Z,0.54
2023-03-29T01:13:33.297Z,0.56
2023-03-29T01:14:33.300Z,0.54
2023-03-29T01:15:33.327Z,0.55
2023-03-29T01:16:33.340Z,0.54
2023-03-29T01:17:33.346Z,0.56
2023-03-29T01:19:33.285Z,0.54
2023-03-29T01:20:33.319Z,0.54
2023-03-29T01:21:33.301Z,0.55
2023-03-29T01:22:33.316Z,0.55
2023-03-29T01:25:33.312Z,0.54
2023-03-29T01:26:33.338Z,0.55
2023-03-29T01:27:33.359Z,0.55
2023-03-29T01:30:33.354Z,0.53
2023-03-29T01:31:33.360Z,0.54
2023-03-29T01:32:33.385Z,0.55
2023-03-29T01:34:33.363Z,0.55
2023-03-29T01:35:33.399Z,0.54
2023-03-29T01:36:33.412Z,0.53
2023-03-29T01:37:33.400Z,0.54
2023-03-29T01:38:33.381Z,0.54
2023-03-29T01:41:33.399Z,0.54
2023-03-29T01:42:33.414Z,0.56
2023-03-29T01:43:33.413Z,0.55
2023-03-29T01:44:33.417Z,0.54
2023-03-29T01:45:33.435Z,0.53
2023-03-29T01:46:33.478Z,0.56
2023-03-29T01:47:33.528Z,0.56
2023-03-29T01:48:33.440Z,0.54
2023-03-29T01:49:33.446Z,0.54
2023-03-29T01:50:33.457Z,0.56
2023-03-29T01:51:33.457Z,0.57
2023-03-29T01:52:33.476Z,0.55
2023-03-29T01:54:33.457Z,0.55
2023-03-29T01:57:33.471Z,0.57
2023-03-29T01:58:33.475Z,0.57
2023-03-29T01:59:33.488Z,0.57
2023-03-29T02:03:33.603Z,0.56
2023-03-29T02:04:33.489Z,0.58
2023-03-29T02:05:33.488Z,0.57
2023-03-29T02:07:33.498Z,0.54
2023-03-29T02:08:33.547Z,0.54
2023-03-29T02:09:33.483Z,0.56
2023-03-29T02:10:33.510Z,0.56
2023-03-29T02:14:33.502Z,0.55
2023-03-29T02:15:33.561Z,0.53
2023-03-29T02:16:33.515Z,0.53
2023-03-29T02:17:33.536Z,0.53
2023-03-29T02:18:33.540Z,0.53
2023-03-29T02:19:33.533Z,0.54
2023-03-29T02:20:33.541Z,0.53
2023-03-29T02:21:33.549Z,0.53
2023-03-29T02:22:33.563Z,0.53
2023-03-29T02:23:33.565Z,0.51
2023-03-29T02:25:33.550Z,0.52
2023-03-29T02:26:33.548Z,0.53
2023-03-29T02:30:33.569Z,0.51
2023-03-29T02:33:33.562Z,0.54
2023-03-29T02:34:33.563Z,0.54
2023-03-29T02:35:33.584Z,0.54
2023-03-29T02:36:33.581Z,0.53
2023-03-29T02:37:33.584Z,0.52
2023-03-29T02:38:33.593Z,0.53
2023-03-29T02:42:33.578Z,0.50
2023-03-29T02:44:33.593Z,0.44
2023-03-29T02:45:33.602Z,0.34
2023-03-29T02:46:33.633Z,0.34
2023-03-29T02:47:33.657Z,0.34
2023-03-29T02:48:33.673Z,0.34
2023-03-29T02:50:33.691Z,0.34
2023-03-29T02:51:33.732Z,0.34
2023-03-29T02:52:33.751Z,0.37
2023-03-29T02:53:33.773Z,0.39
2023-03-29T02:54:33.789Z,0.35
2023-03-29T02:55:33.807Z,0.34
2023-03-29T02:56:33.891Z,0.34
2023-03-29T02:57:33.860Z,0.34
2023-03-29T02:58:33.889Z,0.34
2023-03-29T03:02:34.105Z,0.34
2023-03-29T03:03:34.144Z,0.34
2023-03-29T03:04:34.034Z,0.34
2023-03-29T03:05:34.070Z,0.34
2023-03-29T03:06:34.113Z,0.34
2023-03-29T03:07:34.123Z,0.34
2023-03-29T03:08:34.170Z,0.34
2023-03-29T03:09:34.173Z,0.38
2023-03-29T03:10:34.253Z,0.44
2023-03-29T03:11:34.246Z,0.43
2023-03-29T03:12:34.260Z,0.41
2023-03-29T03:13:34.306Z,0.40
2023-03-29T03:14:34.339Z,0.38
2023-03-29T03:17:34.478Z,0.51
2023-03-29T03:18:34.435Z,0.51
2023-03-29T03:19:34.433Z,0.51
2023-03-29T03:20:34.452Z,0.51
2023-03-29T03:21:34.470Z,0.52
2023-03-29T03:22:34.494Z,0.54
2023-03-29T03:23:34.529Z,0.57
2023-03-29T03:24:34.555Z,0.56
2023-03-29T03:25:34.584Z,0.56
2023-03-29T03:26:34.613Z,0.56
2023-03-29T03:27:34.618Z,0.55
2023-03-29T03:28:34.661Z,0.56
2023-03-29T03:29:34.669Z,0.56
2023-03-29T03:30:34.758Z,0.57
2023-03-29T03:31:34.743Z,0.58
2023-03-29T03:32:34.748Z,0.57
2023-03-29T03:33:34.782Z,0.56
2023-03-29T03:34:34.772Z,0.55
2023-03-29T03:35:34.848Z,0.53
2023-03-29T03:36:34.869Z,0.51
2023-03-29T03:37:34.857Z,0.50
2023-03-29T03:38:34.905Z,0.50
2023-03-29T03:39:34.908Z,0.52
2023-03-29T03:40:34.986Z,0.50
2023-03-29T03:41:34.967Z,0.51
2023-03-29T03:42:34.994Z,0.50
2023-03-29T03:43:35.067Z,0.50
2023-03-29T03:46:35.081Z,0.50
2023-03-29T03:49:35.151Z,0.50
2023-03-29T03:50:35.172Z,0.50
2023-03-29T03:51:35.177Z,0.50
2023-03-29T03:52:35.193Z,0.51
2023-03-29T03:53:35.235Z,0.50
2023-03-29T03:54:35.247Z,0.50
2023-03-29T03:55:35.286Z,0.52
2023-03-29T03:56:35.310Z,0.51
2023-03-29T03:57:35.325Z,0.50
2023-03-29T03:58:35.361Z,0.51
2023-03-29T03:59:35.375Z,0.50
2023-03-29T04:00:35.414Z,0.50
2023-03-29T04:01:35.527Z,0.50
2023-03-29T04:02:35.522Z,0.50
2023-03-29T04:05:35.521Z,0.53
2023-03-29T04:06:35.562Z,0.51
2023-03-29T04:07:35.566Z,0.50
2023-03-29T04:08:35.630Z,0.50
2023-03-29T04:09:35.640Z,0.50
2023-03-29T04:11:35.679Z,0.50
2023-03-29T04:12:35.714Z,0.50
2023-03-29T04:13:35.798Z,0.50
2023-03-29T04:14:35.814Z,0.51
2023-03-29T04:15:35.804Z,0.50
2023-03-29T04:16:35.822Z,0.50
2023-03-29T04:17:38.732Z,0.50
2023-03-29T04:18:35.936Z,0.50
2023-03-29T04:19:35.907Z,0.53
2023-03-29T04:20:35.964Z,0.58
2023-03-29T04:21:35.953Z,0.64
2023-03-29T04:22:35.979Z,0.74
2023-03-29T04:23:35.980Z,0.94
2023-03-29T04:24:36.069Z,1.17
2023-03-29T04:28:36.068Z,2.54
2023-03-29T04:29:36.080Z,2.63
2023-03-29T04:30:36.061Z,2.68
2023-03-29T04:31:36.113Z,2.80
2023-03-29T04:32:36.150Z,2.77
2023-03-29T04:33:36.101Z,2.73
2023-03-29T04:34:36.157Z,2.64
2023-03-29T04:35:36.213Z,2.65
2023-03-29T04:37:36.183Z,2.85
2023-03-29T04:38:36.215Z,2.49
2023-03-29T04:39:36.231Z,2.37
2023-03-29T04:40:36.214Z,2.17
2023-03-29T04:41:36.256Z,2.17
2023-03-29T04:42:36.251Z,2.11
2023-03-29T04:43:37.854Z,2.11
2023-03-29T04:44:36.305Z,2.07
2023-03-29T04:45:36.287Z,2.02
2023-03-29T04:46:36.332Z,2.16
2023-03-29T04:47:36.408Z,2.28
2023-03-29T04:48:36.337Z,2.05
2023-03-29T04:49:36.351Z,1.62
2023-03-29T04:50:36.379Z,1.46
2023-03-29T04:53:36.422Z,1.09
2023-03-29T04:54:36.421Z,1.23
2023-03-29T04:55:36.448Z,1.15
2023-03-29T04:56:36.456Z,1.14
2023-03-29T04:57:36.457Z,0.97
2023-03-29T04:58:36.486Z,0.84
2023-03-29T04:59:36.512Z,0.70
2023-03-29T05:00:36.554Z,0.67
2023-03-29T05:01:36.594Z,0.69
2023-03-29T05:02:36.643Z,0.66
2023-03-29T05:03:36.640Z,0.62
2023-03-29T05:04:36.700Z,0.68
2023-03-29T05:05:36.705Z,0.71
2023-03-29T05:06:36.733Z,0.76
2023-03-29T05:07:36.743Z,0.79
2023-03-29T05:08:36.774Z,0.80
2023-03-29T05:09:36.844Z,0.83
2023-03-29T05:10:36.860Z,0.86
2023-03-29T05:11:36.882Z,0.86
2023-03-29T05:12:36.963Z,0.89
2023-03-29T05:13:36.943Z,0.96
2023-03-29T05:14:36.961Z,1.09
2023-03-29T05:15:37.430Z,1.36
2023-03-29T05:16:37.077Z,1.57
2023-03-29T05:17:37.125Z,1.68
2023-03-29T05:18:37.046Z,1.82
2023-03-29T05:19:37.059Z,1.93
2023-03-29T05:20:37.120Z,2.07
2023-03-29T05:21:37.114Z,2.31
2023-03-29T05:25:37.194Z,2.72
2023-03-29T05:26:37.209Z,3.11
2023-03-29T05:27:37.235Z,3.92
2023-03-29T05:28:37.254Z,4.33
2023-03-29T05:29:37.260Z,4.69
2023-03-29T05:30:37.312Z,5.29
2023-03-29T05:31:37.348Z,5.76
2023-03-29T05:32:37.353Z,6.37
2023-03-29T05:33:37.365Z,6.71
2023-03-29T05:34:37.368Z,7.56
2023-03-29T05:35:37.442Z,9.30
2023-03-29T05:36:37.393Z,10.89
2023-03-29T05:37:37.412Z,13.24
2023-03-29T05:39:37.827Z,17.22
2023-03-29T05:40:37.447Z,21.33
2023-03-29T05:41:37.463Z,22.52
2023-03-29T05:42:37.471Z,24.37
2023-03-29T05:43:37.479Z,27.15
2023-03-29T05:44:37.552Z,28.68
2023-03-29T05:45:37.532Z,32.41
2023-03-29T05:46:37.598Z,34.24
2023-03-29T05:48:37.589Z,45.60
2023-03-29T05:49:37.772Z,51.65
2023-03-29T05:51:37.599Z,59.93
2023-03-29T05:52:37.533Z,68.00
2023-03-29T05:53:37.557Z,73.08
2023-03-29T05:56:37.634Z,86.61
2023-03-29T05:57:37.583Z,89.21
2023-03-29T05:58:37.572Z,87.83
2023-03-29T06:00:37.589Z,88.95
2023-03-29T06:03:37.827Z,87.89
2023-03-29T06:04:37.830Z,85.48
2023-03-29T06:05:37.593Z,67.16
2023-03-29T06:06:37.630Z,42.55
2023-03-29T06:07:37.656Z,29.43
2023-03-29T06:08:37.687Z,23.40
2023-03-29T06:09:37.807Z,21.62
2023-03-29T06:10:37.700Z,17.47
2023-03-29T06:11:37.881Z,12.58
2023-03-29T06:14:37.886Z,6.76
2023-03-29T06:15:37.900Z,5.40
2023-03-29T06:16:39.096Z,4.74
2023-03-29T06:17:38.030Z,4.16
2023-03-29T06:18:38.146Z,3.76
2023-03-29T06:19:38.060Z,3.67
2023-03-29T06:20:38.146Z,3.40
2023-03-29T06:21:38.177Z,3.19
2023-03-29T06:22:38.247Z,2.94
2023-03-29T06:23:38.260Z,3.07
2023-03-29T06:24:38.296Z,2.62
2023-03-29T06:25:38.336Z,2.42
2023-03-29T06:26:38.376Z,2.12
2023-03-29T06:27:38.422Z,1.92
2023-03-29T06:28:38.499Z,1.88
2023-03-29T06:29:38.492Z,1.98
2023-03-29T06:30:38.541Z,2.55
2023-03-29T06:31:38.676Z,3.41
2023-03-29T06:33:38.622Z,5.79
2023-03-29T06:34:38.701Z,7.25
2023-03-29T06:35:38.732Z,9.60
2023-03-29T06:36:38.689Z,13.60
2023-03-29T06:37:38.694Z,16.87
2023-03-29T06:38:38.696Z,18.25
2023-03-29T06:39:38.711Z,19.46
2023-03-29T06:40:38.743Z,22.88
2023-03-29T06:41:38.773Z,25.48
2023-03-29T06:42:38.753Z,31.25
2023-03-29T06:43:38.792Z,34.29
2023-03-29T06:45:38.810Z,44.17
2023-03-29T06:46:38.798Z,51.09
2023-03-29T06:47:38.824Z,55.07
2023-03-29T06:48:38.798Z,57.65
2023-03-29T06:50:38.805Z,74.72
2023-03-29T06:52:38.792Z,85.44
2023-03-29T06:53:38.825Z,85.74
2023-03-29T06:54:38.765Z,86.77
2023-03-29T06:58:38.754Z,118.67
2023-03-29T06:59:38.770Z,129.61
2023-03-29T07:00:38.771Z,135.11
2023-03-29T07:01:38.807Z,135.40
2023-03-29T07:02:38.801Z,142.89
2023-03-29T07:03:38.816Z,143.92
2023-03-29T07:04:38.851Z,144.86
2023-03-29T07:06:38.728Z,149.86
2023-03-29T07:08:38.714Z,153.31
2023-03-29T07:11:38.660Z,169.00
2023-03-29T07:12:38.663Z,173.15
2023-03-29T07:13:38.648Z,181.13
2023-03-29T07:17:38.589Z,204.55
2023-03-29T07:18:38.614Z,202.78
2023-03-29T07:19:38.606Z,205.06
2023-03-29T07:21:38.558Z,215.66
2023-03-29T07:22:38.568Z,211.98
2023-03-29T07:23:38.529Z,213.81
2023-03-29T07:24:38.534Z,214.63
2023-03-29T07:28:38.497Z,187.01
2023-03-29T07:29:38.529Z,183.96
2023-03-29T07:32:38.632Z,166.00
2023-03-29T07:33:38.632Z,169.83
2023-03-29T07:35:38.501Z,156.93
2023-03-29T07:36:38.443Z,152.51
2023-03-29T07:37:38.458Z,145.72
2023-03-29T07:38:38.418Z,127.80
2023-03-29T07:39:38.431Z,124.20
2023-03-29T07:40:38.433Z,120.66
2023-03-29T07:42:38.408Z,49.74
2023-03-29T07:43:38.390Z,38.58
2023-03-29T07:47:38.421Z,30.77
2023-03-29T07:48:38.472Z,27.30
2023-03-29T07:50:38.396Z,23.86
2023-03-29T07:51:38.439Z,20.38
2023-03-29T07:53:38.419Z,14.92
2023-03-29T07:54:38.516Z,14.13
2023-03-29T08:00:38.574Z,12.19
2023-03-29T08:01:38.432Z,12.21
2023-03-29T08:02:38.461Z,12.62
2023-03-29T08:03:38.514Z,13.88
2023-03-29T08:04:38.461Z,15.92
2023-03-29T08:05:41.746Z,18.00
2023-03-29T08:10:38.366Z,23.29
2023-03-29T08:11:38.324Z,26.83
2023-03-29T08:12:38.325Z,30.97
2023-03-29T08:13:38.335Z,33.51
2023-03-29T08:15:38.350Z,45.28
2023-03-29T08:17:38.291Z,45.65
2023-03-29T08:21:38.298Z,46.12
2023-03-29T08:22:38.318Z,51.28
2023-03-29T08:23:38.215Z,45.85
2023-03-29T08:24:38.304Z,42.88
2023-03-29T08:25:38.179Z,39.60
2023-03-29T08:27:38.164Z,40.39
2023-03-29T08:28:38.195Z,38.18
2023-03-29T08:31:38.190Z,46.12
2023-03-29T08:32:38.140Z,39.64
2023-03-29T08:33:38.103Z,32.09
2023-03-29T08:34:38.083Z,29.27
2023-03-29T08:36:38.083Z,20.75
2023-03-29T08:37:38.088Z,17.11
2023-03-29T08:38:38.165Z,15.28
2023-03-29T08:42:38.022Z,11.55
2023-03-29T08:43:38.030Z,10.09
2023-03-29T08:44:38.044Z,10.73
2023-03-29T08:45:38.031Z,10.74
2023-03-29T08:46:38.042Z,10.45
2023-03-29T08:47:38.090Z,9.97
2023-03-29T08:48:38.064Z,7.63
2023-03-29T08:49:38.094Z,6.63
2023-03-29T08:50:38.231Z,6.65
2023-03-29T08:51:38.107Z,4.42
2023-03-29T08:52:38.138Z,4.46
2023-03-29T08:53:38.301Z,4.68
2023-03-29T08:54:38.063Z,5.58
2023-03-29T08:55:38.071Z,7.12
2023-03-29T08:56:38.164Z,11.27
2023-03-29T08:59:38.069Z,19.28
2023-03-29T09:02:38.143Z,29.46
2023-03-29T09:03:38.258Z,34.10
2023-03-29T09:04:38.054Z,37.15
2023-03-29T09:05:38.056Z,40.34
2023-03-29T09:10:38.004Z,60.42
2023-03-29T09:11:37.999Z,64.19
2023-03-29T09:12:38.076Z,68.13
2023-03-29T09:15:37.963Z,71.76
2023-03-29T09:16:38.032Z,77.80
2023-03-29T09:17:38.032Z,84.32
2023-03-29T09:18:37.998Z,88.69
2023-03-29T09:19:37.960Z,87.10
2023-03-29T09:25:50.890Z,104.08
2023-03-29T09:26:38.856Z,92.83
2023-03-29T09:27:38.015Z,94.70
2023-03-29T09:30:37.810Z,113.72
2023-03-29T09:31:38.897Z,111.54
2023-03-29T09:35:37.802Z,119.65
2023-03-29T09:37:37.898Z,128.57
2023-03-29T09:38:37.728Z,136.34
2023-03-29T09:39:37.742Z,141.54
2023-03-29T09:42:37.719Z,144.61
2023-03-29T09:43:37.753Z,141.01
2023-03-29T09:46:37.619Z,165.96
2023-03-29T09:47:37.684Z,157.63
2023-03-29T09:48:37.585Z,159.59
2023-03-29T09:49:37.588Z,159.19
2023-03-29T09:50:37.560Z,159.32
2023-03-29T09:53:37.516Z,158.20
2023-03-29T09:57:37.599Z,127.59
2023-03-29T09:58:37.456Z,129.55
2023-03-29T09:59:37.489Z,123.43
2023-03-29T10:03:37.412Z,104.65
2023-03-29T10:05:37.353Z,101.71
2023-03-29T10:06:37.365Z,94.59
2023-03-29T10:07:37.342Z,91.65
2023-03-29T10:08:37.340Z,93.01
2023-03-29T10:09:37.349Z,93.41
2023-03-29T10:10:37.313Z,89.36
2023-03-29T10:16:37.305Z,75.03
2023-03-29T10:17:37.249Z,72.43
2023-03-29T10:18:37.232Z,69.80
2023-03-29T10:19:37.271Z,68.09
2023-03-29T10:21:37.184Z,64.04
2023-03-29T10:22:37.248Z,64.23
2023-03-29T10:23:37.195Z,63.18
2023-03-29T10:24:37.158Z,66.41
2023-03-29T10:25:37.185Z,65.48
2023-03-29T10:28:37.094Z,64.71
2023-03-29T10:29:37.118Z,65.09
2023-03-29T10:31:37.123Z,65.33
2023-03-29T10:32:37.088Z,66.64
2023-03-29T10:33:37.034Z,63.20
2023-03-29T10:34:37.038Z,62.28
2023-03-29T10:36:37.000Z,59.81
2023-03-29T10:40:36.934Z,63.14
2023-03-29T10:41:36.980Z,62.37
2023-03-29T10:43:36.870Z,66.07
2023-03-29T10:44:36.910Z,66.26
2023-03-29T10:46:36.977Z,69.25
2023-03-29T10:47:36.879Z,68.54
2023-03-29T10:49:36.783Z,68.46
2023-03-29T10:50:36.847Z,68.41
2023-03-29T10:53:36.746Z,69.08
2023-03-29T10:54:36.787Z,70.33
2023-03-29T10:55:36.772Z,67.17
2023-03-29T10:56:36.729Z,69.90
2023-03-29T10:57:36.887Z,70.22
2023-03-29T10:59:36.746Z,69.88
2023-03-29T11:00:36.692Z,70.04
2023-03-29T11:04:36.636Z,67.81
2023-03-29T11:05:36.664Z,65.33
2023-03-29T11:07:36.658Z,68.83
2023-03-29T11:09:36.624Z,64.72
2023-03-29T11:11:36.550Z,64.09
2023-03-29T11:12:36.577Z,62.81
2023-03-29T11:15:36.596Z,54.79
2023-03-29T11:20:36.493Z,32.64
2023-03-29T11:21:36.478Z,30.01
2023-03-29T11:22:36.482Z,28.76
2023-03-29T11:23:36.505Z,26.53
2023-03-29T11:25:36.486Z,24.47
2023-03-29T11:28:36.457Z,20.34
2023-03-29T11:29:36.567Z,21.65
2023-03-29T11:31:38.544Z,24.69
2023-03-29T11:32:36.504Z,24.77
2023-03-29T11:34:37.136Z,24.82
2023-03-29T11:37:36.363Z,29.50
2023-03-29T11:39:36.353Z,35.40
2023-03-29T11:41:36.337Z,38.32
2023-03-29T11:43:36.311Z,40.39
2023-03-29T11:44:36.286Z,40.67
2023-03-29T11:45:36.275Z,40.46
2023-03-29T11:46:36.294Z,40.54
2023-03-29T11:49:36.259Z,42.06
2023-03-29T11:50:36.830Z,41.47
2023-03-29T11:52:36.235Z,40.21
2023-03-29T11:54:36.165Z,37.92
2023-03-29T11:55:36.188Z,38.45
2023-03-29T11:56:36.125Z,39.44
2023-03-29T12:02:36.156Z,33.07
2023-03-29T12:03:36.171Z,31.60
2023-03-29T12:04:36.073Z,32.26
2023-03-29T12:06:36.072Z,31.89
2023-03-29T12:07:36.107Z,31.37
2023-03-29T12:09:36.024Z,30.15
2023-03-29T12:14:35.941Z,28.80
2023-03-29T12:15:35.999Z,27.55
2023-03-29T12:16:35.969Z,27.84
2023-03-29T12:17:35.920Z,28.49
2023-03-29T12:21:35.861Z,27.31
2023-03-29T12:22:35.827Z,26.03
2023-03-29T12:25:35.803Z,25.60
2023-03-29T12:27:35.763Z,26.59
2023-03-29T12:28:35.739Z,27.13
2023-03-29T12:29:35.751Z,26.92
2023-03-29T12:32:35.761Z,30.54
2023-03-29T12:35:35.670Z,31.23
2023-03-29T12:37:35.621Z,38.28
2023-03-29T12:38:35.609Z,41.96
2023-03-29T12:39:35.684Z,45.33
2023-03-29T12:41:35.601Z,52.16
2023-03-29T12:43:35.596Z,59.76
2023-03-29T12:45:35.496Z,64.22
2023-03-29T12:46:35.549Z,65.47
2023-03-29T12:47:35.499Z,68.10
2023-03-29T12:48:35.424Z,74.71
2023-03-29T12:49:35.400Z,87.79
2023-03-29T12:50:35.394Z,64.75
2023-03-29T12:51:35.444Z,67.89
2023-03-29T12:52:35.366Z,76.68
2023-03-29T12:55:09.761Z,0.50
2023-03-29T12:57:15.501Z,0.50
2023-03-29T12:58:15.342Z,0.50
2023-03-29T12:59:15.315Z,0.50
2023-03-29T13:00:15.297Z,0.50
2023-03-29T13:01:15.347Z,0.50
2023-03-29T13:02:15.419Z,0.57
2023-03-29T13:03:15.226Z,0.50
2023-03-29T13:04:15.174Z,0.51
2023-03-29T13:05:15.229Z,0.50
2023-03-29T13:06:15.128Z,0.51
2023-03-29T13:07:15.124Z,0.50
2023-03-29T13:08:15.068Z,0.51
2023-03-29T13:09:15.047Z,0.51
2023-03-29T13:10:15.014Z,0.52
2023-03-29T13:11:15.012Z,0.52
2023-03-29T13:12:14.986Z,0.53
2023-03-29T13:13:14.946Z,0.52
2023-03-29T13:14:14.899Z,0.50
2023-03-29T13:15:14.866Z,0.42
2023-03-29T13:16:14.895Z,0.38
2023-03-29T13:17:18.704Z,0.34
2023-03-29T13:18:14.866Z,0.34
2023-03-29T13:19:14.766Z,0.34
2023-03-29T13:20:14.781Z,0.34
2023-03-29T13:21:14.714Z,0.34
2023-03-29T13:22:14.709Z,0.34
2023-03-29T13:23:17.030Z,0.34
2023-03-29T13:24:14.661Z,0.34
2023-03-29T13:25:14.661Z,0.34
2023-03-29T13:26:14.608Z,0.34
2023-03-29T13:27:14.595Z,0.34
2023-03-29T13:28:14.592Z,0.34
2023-03-29T13:29:14.559Z,0.34
2023-03-29T13:30:14.580Z,0.34
2023-03-29T13:31:14.715Z,0.34
2023-03-29T13:32:14.631Z,0.34
2023-03-29T13:33:14.557Z,0.34
2023-03-29T13:34:14.519Z,0.34
2023-03-29T13:35:14.526Z,0.34
2023-03-29T13:36:14.587Z,0.34
2023-03-29T13:37:14.478Z,0.34
2023-03-29T13:38:14.444Z,0.34
2023-03-29T13:39:14.446Z,0.34
2023-03-29T13:40:14.457Z,0.35
2023-03-29T13:41:14.364Z,0.41
2023-03-29T13:42:14.362Z,0.54
2023-03-29T13:43:14.308Z,0.60
2023-03-29T13:44:14.281Z,0.69
2023-03-29T13:45:14.275Z,0.79
2023-03-29T13:46:14.323Z,0.85
2023-03-29T13:47:14.337Z,0.96
2023-03-29T13:48:14.406Z,1.14
2023-03-29T13:49:14.416Z,1.27
2023-03-29T13:50:14.407Z,1.43
2023-03-29T13:51:14.413Z,1.60
2023-03-29T13:52:14.427Z,1.70
2023-03-29T13:53:14.375Z,1.71
2023-03-29T13:54:14.342Z,1.76
2023-03-29T13:55:14.339Z,1.72
2023-03-29T13:56:14.282Z,1.81
2023-03-29T13:57:14.310Z,2.01
2023-03-29T13:58:14.235Z,2.43
2023-03-29T13:59:14.199Z,3.25
2023-03-29T14:00:14.205Z,3.52
2023-03-29T14:01:14.201Z,3.85
2023-03-29T14:02:14.128Z,4.02
2023-03-29T14:03:14.165Z,4.34
2023-03-29T14:04:14.024Z,4.57
2023-03-29T14:05:13.968Z,4.86
2023-03-29T14:06:13.933Z,5.13
2023-03-29T14:07:13.959Z,5.66
2023-03-29T14:08:13.915Z,6.13
2023-03-29T14:09:13.854Z,6.37
2023-03-29T14:10:13.832Z,6.14
2023-03-29T14:11:13.772Z,6.39
2023-03-29T14:12:13.734Z,6.72
2023-03-29T14:13:13.714Z,7.02
2023-03-29T14:14:13.680Z,7.47
2023-03-29T14:15:13.912Z,9.32
2023-03-29T14:16:13.702Z,8.42
2023-03-29T14:17:13.748Z,9.26
2023-03-29T14:18:13.708Z,9.71
2023-03-29T14:19:13.695Z,10.08
2023-03-29T14:20:13.725Z,10.31
2023-03-29T14:21:13.698Z,10.35
2023-03-29T14:22:13.702Z,10.16
2023-03-29T14:23:15.645Z,10.36
2023-03-29T14:24:13.749Z,10.26
2023-03-29T14:25:13.762Z,9.97
2023-03-29T14:26:13.776Z,9.49
2023-03-29T14:27:13.803Z,9.39
2023-03-29T14:28:13.839Z,9.25
2023-03-29T14:29:13.850Z,8.77
2023-03-29T14:30:13.852Z,8.79
2023-03-29T14:31:13.873Z,8.79
2023-03-29T14:32:13.866Z,8.66
2023-03-29T14:33:13.777Z,8.61
2023-03-29T14:34:13.741Z,8.35
2023-03-29T14:35:13.743Z,8.15
2023-03-29T14:36:13.782Z,7.89
2023-03-29T14:37:13.690Z,7.56
2023-03-29T14:38:13.686Z,7.37
2023-03-29T14:39:13.632Z,7.04
2023-03-29T14:40:13.638Z,6.84
2023-03-29T14:41:13.682Z,6.61
2023-03-29T14:42:13.721Z,6.35
2023-03-29T14:43:13.777Z,6.40
2023-03-29T14:44:13.802Z,6.31
2023-03-29T14:45:13.844Z,5.96
2023-03-29T14:46:13.927Z,5.91
2023-03-29T14:47:13.928Z,5.77
2023-03-29T14:48:13.987Z,5.67
2023-03-29T14:49:14.015Z,5.40
2023-03-29T14:50:14.071Z,5.42
2023-03-29T14:51:14.108Z,5.49
2023-03-29T14:52:14.150Z,5.58
2023-03-29T14:53:14.218Z,5.47
2023-03-29T14:54:14.241Z,5.55
2023-03-29T14:55:14.289Z,5.50
2023-03-29T14:56:14.325Z,5.44
2023-03-29T14:57:14.432Z,5.23
2023-03-29T14:58:14.416Z,5.35
2023-03-29T14:59:14.456Z,5.28
2023-03-29T15:00:14.523Z,5.25
2023-03-29T15:01:14.569Z,5.30
2023-03-29T15:02:14.570Z,5.28
2023-03-29T15:03:14.760Z,5.27
2023-03-29T15:04:14.588Z,5.29
2023-03-29T15:05:14.586Z,5.18
2023-03-29T15:06:14.599Z,5.20
2023-03-29T15:07:14.650Z,5.19
2023-03-29T15:08:14.713Z,5.27
2023-03-29T15:09:14.752Z,5.34
2023-03-29T15:10:14.817Z,5.16
2023-03-29T15:11:14.865Z,5.30
2023-03-29T15:12:14.908Z,5.16
2023-03-29T15:13:14.953Z,5.22
2023-03-29T15:14:14.953Z,5.10
2023-03-29T15:15:15.094Z,5.29
2023-03-29T15:16:15.104Z,5.10
2023-03-29T15:17:15.092Z,5.29
2023-03-29T15:18:15.173Z,5.16
2023-03-29T15:19:15.184Z,5.20
2023-03-29T15:20:15.186Z,5.23
2023-03-29T15:21:15.170Z,5.29
2023-03-29T15:22:15.188Z,5.08
2023-03-29T15:23:15.220Z,5.15
2023-03-29T15:24:15.264Z,5.04
2023-03-29T15:25:15.322Z,5.17
2023-03-29T15:26:15.369Z,5.16
2023-03-29T15:27:15.406Z,5.10
2023-03-29T15:28:15.443Z,5.04
2023-03-29T15:29:15.461Z,5.11
2023-03-29T15:30:15.487Z,5.03
2023-03-29T15:31:15.524Z,5.03
2023-03-29T15:32:15.468Z,4.97
2023-03-29T15:33:15.495Z,4.92
2023-03-29T15:34:15.438Z,4.95
2023-03-29T15:35:15.460Z,4.96
2023-03-29T15:36:15.446Z,4.96
2023-03-29T15:37:15.412Z,4.97
2023-03-29T15:38:15.410Z,4.98
2023-03-29T15:39:15.439Z,4.97
2023-03-29T15:40:16.309Z,4.85
2023-03-29T15:41:15.390Z,4.95
2023-03-29T15:42:15.306Z,4.80
2023-03-29T15:43:15.270Z,4.89
2023-03-29T15:44:15.264Z,4.76
2023-03-29T15:45:15.224Z,4.72
2023-03-29T15:46:15.249Z,4.76
2023-03-29T15:47:15.188Z,4.72
2023-03-29T15:48:15.171Z,4.78
2023-03-29T15:49:15.152Z,4.77
2023-03-29T15:50:15.148Z,4.81
2023-03-29T15:51:15.113Z,4.74
2023-03-29T15:52:15.099Z,4.70
2023-03-29T15:53:15.874Z,4.73
2023-03-29T15:54:15.085Z,4.55
2023-03-29T15:55:15.043Z,4.69
2023-03-29T15:56:15.048Z,4.64
2023-03-29T15:57:15.090Z,4.51
2023-03-29T15:58:15.119Z,4.55
2023-03-29T15:59:15.036Z,4.48
2023-03-29T16:00:14.947Z,4.62
2023-03-29T16:01:15.020Z,4.55
2023-03-29T16:02:14.970Z,4.42
2023-03-29T16:03:14.966Z,4.51
2023-03-29T16:04:14.915Z,4.49
2023-03-29T16:05:14.884Z,4.50
2023-03-29T16:06:14.871Z,4.48
2023-03-29T16:07:14.856Z,4.48
2023-03-29T16:08:14.889Z,4.43
2023-03-29T16:09:14.830Z,4.36
2023-03-29T16:10:14.829Z,4.44
2023-03-29T16:11:14.807Z,4.34
2023-03-29T16:12:14.781Z,4.41
2023-03-29T16:13:14.776Z,4.41
2023-03-29T16:14:14.787Z,4.32
2023-03-29T16:15:14.775Z,4.31
2023-03-29T16:16:14.819Z,4.29
2023-03-29T16:17:14.782Z,4.27
2023-03-29T16:18:14.786Z,4.32
2023-03-29T16:19:14.794Z,4.30
2023-03-29T16:20:14.789Z,4.25
2023-03-29T16:21:14.789Z,4.15
2023-03-29T16:22:14.777Z,4.20
2023-03-29T16:23:14.775Z,4.18
2023-03-29T16:24:14.773Z,4.14
2023-03-29T16:25:14.764Z,4.13
2023-03-29T16:26:14.796Z,4.05
2023-03-29T16:27:14.732Z,4.09
2023-03-29T16:28:14.735Z,4.10
2023-03-29T16:29:14.722Z,3.96
2023-03-29T16:30:14.712Z,4.11
2023-03-29T16:31:14.784Z,4.07
2023-03-29T16:32:14.789Z,3.92
2023-03-29T16:33:14.789Z,3.95
2023-03-29T16:34:14.774Z,4.00
2023-03-29T16:35:14.716Z,4.00
2023-03-29T16:36:14.745Z,3.95
2023-03-29T16:37:14.727Z,3.98
2023-03-29T16:38:14.749Z,3.98
2023-03-29T16:39:14.762Z,3.92
2023-03-29T16:40:14.758Z,3.86
2023-03-29T16:41:14.777Z,3.89
2023-03-29T16:42:14.770Z,3.92
2023-03-29T16:43:14.790Z,3.73
2023-03-29T16:44:14.802Z,3.88
2023-03-29T16:45:14.824Z,3.78
2023-03-29T16:46:14.842Z,3.83
2023-03-29T16:47:14.817Z,3.79
2023-03-29T16:48:14.817Z,3.77
2023-03-29T16:49:14.812Z,3.81
2023-03-29T16:50:14.884Z,3.74
2023-03-29T16:51:14.833Z,3.80
2023-03-29T16:52:14.849Z,3.76
2023-03-29T16:53:14.867Z,3.66
2023-03-29T16:54:14.874Z,3.73
2023-03-29T16:55:14.893Z,3.66
2023-03-29T16:56:14.906Z,3.65
2023-03-29T16:57:14.943Z,3.62
2023-03-29T16:58:14.940Z,3.66
2023-03-29T16:59:14.936Z,3.66
2023-03-29T17:00:14.959Z,3.60
2023-03-29T17:01:14.968Z,3.54
2023-03-29T17:02:14.954Z,3.61
2023-03-29T17:03:15.009Z,3.54
2023-03-29T17:04:15.041Z,3.54
2023-03-29T17:05:14.959Z,3.56
2023-03-29T17:06:14.978Z,3.55
2023-03-29T17:07:14.996Z,3.45
2023-03-29T17:08:14.998Z,3.52